Rio Vista, CA (94571)

3:56 AM PDT on July 06, 2015 (GMT -0700)
Trilogy | | Change Station
CLOSE
Current Station
Personal Weather Station
Location: Rio Vista, CA
Elevation: 26 ft
Nearby Weather Stations

Elev 26 ft 38.18 °N, 121.71 °W | Updated 0 second ago

Clear
Clear
62.3 °F
Feels Like 62.3 °F
N
12.5
Wind Variable Wind from SW
Gusts 12.8 mph

Today
High -- | Low -- °F
--% Chance of Precip.
Yesterday
High -- | Low -- °F
Precip. -- in
5:49 AM 8:33 PM
Waning Gibbous, 76% visible
Pressure 29.94 in
Visibility 10.0 miles
Clouds Clear
Dew Point 54 °F
Humidity 76%
Rainfall 0.00 in
Snow Depth Not available.
UV 0 out of 12
Pollen 5.50 out of 12
Air Quality Not available.
Flu Activity Not available.
METAR KSUU 060958Z AUTO 25027G34KT 10SM CLR 15/13 A2992 RMK AO2 PK WND 25036/39 CIG 008 RWY03R SLP138 T01510133 PNO $

More Conditions Fewer Conditions

Pressure 29.94 in
Visibility 10.0 miles
Clouds Clear
Dew Point 54 °F
Humidity 76%
Rainfall 0.00 in
Snow Depth Not available.
UV 0 out of 12
Pollen 5.50 out of 12
Air Quality Not available.
Flu Activity Not available.
METAR KSUU 060958Z AUTO 25027G34KT 10SM CLR 15/13 A2992 RMK AO2 PK WND 25036/39 CIG 008 RWY03R SLP138 T01510133 PNO $

More Conditions Fewer Conditions

10-Day Weather Forecast

×

Almanac

Astronomy

Jul. 06, 2015 Rise Set
Actual Time
Civil Twilight
Nautical Twilight
Astronomical Twilight
Moon
Length of Visible Light
Length of Day
Tomorrow will be .
, % of the Moon is Illuminated

Today's Extremes

State Highs State Lows

Community

WunderPhotos

Upload Photos

1,835,531 photos uploaded!

WunderBlogs® & News

Nearby

Air Quality

  Air Quality AQ Index Pollutant
Not available.

Snow Depth

Station Depth Elevation

Earthquake Activity

City Distance Mag. Time & Date
Minimum magnitude displayed is 2.5.

Coastal Water Temperatures

Place Temperature

Stations

Nearby Weather Stations

Station Location Temp. Windchill Dew Point Humidity Wind Precip. Elev Updated Type